Auburn, MI (48611)

8:22 PM EST on February 06, 2016 (GMT -0500)
APRSWXNET | | Change Station
CLOSE
Current Station
Personal Weather Station
Location: Auburn, MI
Elevation: 617 ft
Nearby Weather Stations

Elev 617 ft 43.60 °N, 84.10 °W | Updated 27 minutes ago

Overcast
Overcast
34 °F
Feels Like 34 °F
N
0
Wind Variable Wind from NNW
Gusts 0.0 mph

Today
High -- | Low -- °F
--% Chance of Precip.
Yesterday
High -- | Low -- °F
Precip. -- in
Pressure 30.17 in
Visibility 10.0 miles
Clouds Overcast 2300 ft
Windchill 34 °F
Dew Point 29 °F
Humidity 82%
Rainfall in
Snow Depth Not available.
7:47 AM 5:53 PM
Waning Crescent, 3% visible
METAR KMBS 070053Z 23009KT 10SM OVC023 01/M03 A3014 RMK AO2 SLP216 T00111033
Pressure 30.17 in
Visibility 10.0 miles
Clouds Overcast 2300 ft
Windchill 34 °F
Dew Point 29 °F
Humidity 82%
Rainfall in
Snow Depth Not available.
7:47 AM 5:53 PM
Waning Crescent, 3% visible
METAR KMBS 070053Z 23009KT 10SM OVC023 01/M03 A3014 RMK AO2 SLP216 T00111033

10-Day Weather Forecast

Almanac

Astronomy

Feb. 06, 2016 Rise Set
Actual Time
Civil Twilight
Nautical Twilight
Astronomical Twilight
Moon
Length of Visible Light
Length of Day
Tomorrow will be .
, % of the Moon is Illuminated

Today's Extremes

State Highs State Lows

Community

WunderPhotos

Upload Photos

1,891,118 photos uploaded!

WunderBlog® & News

Nearby

Air Quality

  Air Quality AQ Index Pollutant
Not available.

Snow Depth

Station Depth Elevation

Earthquake Activity

City Distance Mag. Time & Date
Minimum magnitude displayed is 2.5.

Coastal Water Temperatures

Place Temperature

Stations

Nearby Weather Stations

Station Location Temp. Windchill Dew Point Humidity Wind Precip. Elev Updated Type
                   

Watches & Warnings

There are currently no watches in effect.